sensor_id;sensor_type;location;lat;lon;timestamp;temperature;humidity
26164;DHT22;13914;48.178;11.716;2023-01-15T00:00:22;7.30;97.80
26164;DHT22;13914;48.178;11.716;2023-01-15T00:02:48;7.30;97.90
26164;DHT22;13914;48.178;11.716;2023-01-15T00:05:14;7.30;97.80
26164;DHT22;13914;48.178;11.716;2023-01-15T00:07:40;7.30;97.90
26164;DHT22;13914;48.178;11.716;2023-01-15T00:10:06;7.30;97.80
26164;DHT22;13914;48.178;11.716;2023-01-15T00:12:32;7.30;97.80
26164;DHT22;13914;48.178;11.716;2023-01-15T00:14:58;7.30;97.70
26164;DHT22;13914;48.178;11.716;2023-01-15T00:17:24;7.30;97.70
26164;DHT22;13914;48.178;11.716;2023-01-15T00:19:49;7.30;97.70
26164;DHT22;13914;48.178;11.716;2023-01-15T00:22:15;7.30;97.70
26164;DHT22;13914;48.178;11.716;2023-01-15T00:24:41;7.30;97.70
26164;DHT22;13914;48.178;11.716;2023-01-15T00:27:25;7.20;97.60
26164;DHT22;13914;48.178;11.716;2023-01-15T00:30:03;7.20;97.80
26164;DHT22;13914;48.178;11.716;2023-01-15T00:32:30;7.20;97.70
26164;DHT22;13914;48.178;11.716;2023-01-15T00:34:59;7.30;97.70
26164;DHT22;13914;48.178;11.716;2023-01-15T00:37:24;7.20;97.70
26164;DHT22;13914;48.178;11.716;2023-01-15T00:39:50;7.20;97.70
26164;DHT22;13914;48.178;11.716;2023-01-15T00:42:16;7.20;97.70
26164;DHT22;13914;48.178;11.716;2023-01-15T00:44:42;7.20;97.70
26164;DHT22;13914;48.178;11.716;2023-01-15T00:47:08;7.10;97.70
26164;DHT22;13914;48.178;11.716;2023-01-15T00:49:39;7.10;97.80
26164;DHT22;13914;48.178;11.716;2023-01-15T00:52:07;7.20;97.90
26164;DHT22;13914;48.178;11.716;2023-01-15T00:54:34;7.20;97.90
26164;DHT22;13914;48.178;11.716;2023-01-15T00:56:59;7.10;97.90
26164;DHT22;13914;48.178;11.716;2023-01-15T00:59:25;7.10;97.90
26164;DHT22;13914;48.178;11.716;2023-01-15T01:01:51;7.10;97.70
26164;DHT22;13914;48.178;11.716;2023-01-15T01:04:16;7.10;97.80
26164;DHT22;13914;48.178;11.716;2023-01-15T01:06:42;7.10;97.90
26164;DHT22;13914;48.178;11.716;2023-01-15T01:09:14;7.10;97.90
26164;DHT22;13914;48.178;11.716;2023-01-15T01:11:41;7.10;98.00
26164;DHT22;13914;48.178;11.716;2023-01-15T01:14:08;7.10;98.10
26164;DHT22;13914;48.178;11.716;2023-01-15T01:16:35;7.00;98.00
26164;DHT22;13914;48.178;11.716;2023-01-15T01:19:05;7.00;98.00
26164;DHT22;13914;48.178;11.716;2023-01-15T01:21:33;7.00;97.90
26164;DHT22;13914;48.178;11.716;2023-01-15T01:23:59;7.00;98.00
26164;DHT22;13914;48.178;11.716;2023-01-15T01:26:26;7.00;98.00
26164;DHT22;13914;48.178;11.716;2023-01-15T01:28:53;7.00;98.00
26164;DHT22;13914;48.178;11.716;2023-01-15T01:31:19;6.90;98.00
26164;DHT22;13914;48.178;11.716;2023-01-15T01:33:48;7.00;98.00
26164;DHT22;13914;48.178;11.716;2023-01-15T01:36:15;6.90;98.10
26164;DHT22;13914;48.178;11.716;2023-01-15T01:38:41;6.90;98.10
26164;DHT22;13914;48.178;11.716;2023-01-15T01:41:06;6.90;98.00
26164;DHT22;13914;48.178;11.716;2023-01-15T01:46:16;6.90;98.00
26164;DHT22;13914;48.178;11.716;2023-01-15T01:48:42;6.90;98.10
26164;DHT22;13914;48.178;11.716;2023-01-15T01:51:07;6.90;98.20
26164;DHT22;13914;48.178;11.716;2023-01-15T01:53:33;6.90;98.10
26164;DHT22;13914;48.178;11.716;2023-01-15T01:55:59;6.80;98.10
26164;DHT22;13914;48.178;11.716;2023-01-15T01:58:26;6.80;98.10
26164;DHT22;13914;48.178;11.716;2023-01-15T02:00:53;6.80;98.10
26164;DHT22;13914;48.178;11.716;2023-01-15T02:03:19;6.80;98.00
26164;DHT22;13914;48.178;11.716;2023-01-15T02:05:49;6.80;98.00
26164;DHT22;13914;48.178;11.716;2023-01-15T02:08:17;6.80;98.10
26164;DHT22;13914;48.178;11.716;2023-01-15T02:10:44;6.80;98.10
26164;DHT22;13914;48.178;11.716;2023-01-15T02:13:19;6.80;98.10
26164;DHT22;13914;48.178;11.716;2023-01-15T02:15:52;6.80;98.20
26164;DHT22;13914;48.178;11.716;2023-01-15T02:18:23;6.70;98.20
26164;DHT22;13914;48.178;11.716;2023-01-15T02:20:56;6.70;98.20
26164;DHT22;13914;48.178;11.716;2023-01-15T02:29:07;6.70;98.10
26164;DHT22;13914;48.178;11.716;2023-01-15T02:31:36;6.70;98.20
26164;DHT22;13914;48.178;11.716;2023-01-15T02:34:04;6.70;98.30
26164;DHT22;13914;48.178;11.716;2023-01-15T02:36:32;6.70;98.20
26164;DHT22;13914;48.178;11.716;2023-01-15T02:39:00;6.70;98.30
26164;DHT22;13914;48.178;11.716;2023-01-15T02:41:29;6.70;98.30
26164;DHT22;13914;48.178;11.716;2023-01-15T02:43:57;6.60;98.30
26164;DHT22;13914;48.178;11.716;2023-01-15T02:46:27;6.60;98.30
26164;DHT22;13914;48.178;11.716;2023-01-15T02:48:55;6.60;98.40
26164;DHT22;13914;48.178;11.716;2023-01-15T02:51:23;6.60;98.40
26164;DHT22;13914;48.178;11.716;2023-01-15T02:53:51;6.60;98.40
26164;DHT22;13914;48.178;11.716;2023-01-15T02:56:21;6.60;98.40
26164;DHT22;13914;48.178;11.716;2023-01-15T02:58:50;6.60;98.50
26164;DHT22;13914;48.178;11.716;2023-01-15T03:01:20;6.60;98.90
26164;DHT22;13914;48.178;11.716;2023-01-15T03:06:20;6.50;98.40
26164;DHT22;13914;48.178;11.716;2023-01-15T03:09:00;6.50;98.40
26164;DHT22;13914;48.178;11.716;2023-01-15T03:11:26;6.50;98.40
26164;DHT22;13914;48.178;11.716;2023-01-15T03:13:58;6.50;98.40
26164;DHT22;13914;48.178;11.716;2023-01-15T03:16:51;6.50;98.40
26164;DHT22;13914;48.178;11.716;2023-01-15T03:22:22;6.50;98.40
26164;DHT22;13914;48.178;11.716;2023-01-15T03:24:53;6.50;98.40
26164;DHT22;13914;48.178;11.716;2023-01-15T03:27:20;6.50;98.50
26164;DHT22;13914;48.178;11.716;2023-01-15T03:29:50;6.50;98.50
26164;DHT22;13914;48.178;11.716;2023-01-15T03:32:18;6.50;98.50
26164;DHT22;13914;48.178;11.716;2023-01-15T03:34:46;6.40;98.40
26164;DHT22;13914;48.178;11.716;2023-01-15T03:37:14;6.40;98.50
26164;DHT22;13914;48.178;11.716;2023-01-15T03:39:40;6.50;98.50
26164;DHT22;13914;48.178;11.716;2023-01-15T03:58:20;6.40;98.50
26164;DHT22;13914;48.178;11.716;2023-01-15T04:00:51;6.40;98.50
26164;DHT22;13914;48.178;11.716;2023-01-15T04:03:18;6.40;98.60
26164;DHT22;13914;48.178;11.716;2023-01-15T04:05:46;6.40;98.50
26164;DHT22;13914;48.178;11.716;2023-01-15T04:08:13;6.40;98.50
26164;DHT22;13914;48.178;11.716;2023-01-15T04:13:21;6.40;98.50
26164;DHT22;13914;48.178;11.716;2023-01-15T04:15:48;6.40;98.60
26164;DHT22;13914;48.178;11.716;2023-01-15T04:18:14;6.40;98.50
26164;DHT22;13914;48.178;11.716;2023-01-15T04:20:40;6.40;98.50
26164;DHT22;13914;48.178;11.716;2023-01-15T04:23:06;6.40;98.60
26164;DHT22;13914;48.178;11.716;2023-01-15T04:25:31;6.40;98.50
26164;DHT22;13914;48.178;11.716;2023-01-15T04:27:57;6.40;98.60
26164;DHT22;13914;48.178;11.716;2023-01-15T04:30:23;6.40;98.60
26164;DHT22;13914;48.178;11.716;2023-01-15T04:32:49;6.40;98.60
26164;DHT22;13914;48.178;11.716;2023-01-15T04:35:15;6.30;98.60
26164;DHT22;13914;48.178;11.716;2023-01-15T04:37:41;6.40;98.60
26164;DHT22;13914;48.178;11.716;2023-01-15T04:40:07;6.40;98.60
26164;DHT22;13914;48.178;11.716;2023-01-15T04:42:34;6.40;98.60
26164;DHT22;13914;48.178;11.716;2023-01-15T04:45:18;6.40;98.70
26164;DHT22;13914;48.178;11.716;2023-01-15T04:47:44;6.40;98.60
26164;DHT22;13914;48.178;11.716;2023-01-15T04:50:09;6.40;98.60
26164;DHT22;13914;48.178;11.716;2023-01-15T04:52:36;6.30;98.60
26164;DHT22;13914;48.178;11.716;2023-01-15T04:55:02;6.40;98.70
26164;DHT22;13914;48.178;11.716;2023-01-15T04:57:28;6.30;98.70
26164;DHT22;13914;48.178;11.716;2023-01-15T04:59:54;6.30;98.70
26164;DHT22;13914;48.178;11.716;2023-01-15T05:02:20;6.30;98.60
26164;DHT22;13914;48.178;11.716;2023-01-15T05:04:45;6.30;98.60
26164;DHT22;13914;48.178;11.716;2023-01-15T05:07:11;6.40;98.70
26164;DHT22;13914;48.178;11.716;2023-01-15T05:09:37;6.40;98.60
26164;DHT22;13914;48.178;11.716;2023-01-15T05:12:03;6.40;98.70
26164;DHT22;13914;48.178;11.716;2023-01-15T05:14:29;6.30;98.70
26164;DHT22;13914;48.178;11.716;2023-01-15T05:16:55;6.30;98.60
26164;DHT22;13914;48.178;11.716;2023-01-15T05:19:20;6.40;98.60
26164;DHT22;13914;48.178;11.716;2023-01-15T05:21:46;6.30;98.70
26164;DHT22;13914;48.178;11.716;2023-01-15T05:24:13;6.40;98.70
26164;DHT22;13914;48.178;11.716;2023-01-15T05:26:39;6.40;98.70
26164;DHT22;13914;48.178;11.716;2023-01-15T05:29:05;6.30;98.70
26164;DHT22;13914;48.178;11.716;2023-01-15T05:31:31;6.30;98.70
26164;DHT22;13914;48.178;11.716;2023-01-15T05:33:58;6.30;98.70
26164;DHT22;13914;48.178;11.716;2023-01-15T05:36:25;6.40;98.70
26164;DHT22;13914;48.178;11.716;2023-01-15T05:38:53;6.40;98.70
26164;DHT22;13914;48.178;11.716;2023-01-15T05:41:19;6.40;98.70
26164;DHT22;13914;48.178;11.716;2023-01-15T05:44:28;6.40;98.70
26164;DHT22;13914;48.178;11.716;2023-01-15T05:46:55;6.40;98.70
26164;DHT22;13914;48.178;11.716;2023-01-15T05:49:22;6.40;98.70
26164;DHT22;13914;48.178;11.716;2023-01-15T05:51:50;6.40;98.70
26164;DHT22;13914;48.178;11.716;2023-01-15T05:54:19;6.40;98.70
26164;DHT22;13914;48.178;11.716;2023-01-15T05:56:49;6.40;98.70
26164;DHT22;13914;48.178;11.716;2023-01-15T05:59:16;6.40;98.70
26164;DHT22;13914;48.178;11.716;2023-01-15T06:01:43;6.40;98.70
26164;DHT22;13914;48.178;11.716;2023-01-15T06:04:09;6.40;98.70
26164;DHT22;13914;48.178;11.716;2023-01-15T06:06:37;6.40;98.80
26164;DHT22;13914;48.178;11.716;2023-01-15T06:09:03;6.40;98.70
26164;DHT22;13914;48.178;11.716;2023-01-15T06:11:29;6.40;98.70
26164;DHT22;13914;48.178;11.716;2023-01-15T06:13:54;6.40;98.70
26164;DHT22;13914;48.178;11.716;2023-01-15T06:16:20;6.40;98.70
26164;DHT22;13914;48.178;11.716;2023-01-15T06:18:46;6.40;98.70
26164;DHT22;13914;48.178;11.716;2023-01-15T06:21:12;6.40;98.70
26164;DHT22;13914;48.178;11.716;2023-01-15T06:23:39;6.40;98.80
26164;DHT22;13914;48.178;11.716;2023-01-15T06:26:06;6.40;98.80
26164;DHT22;13914;48.178;11.716;2023-01-15T06:28:34;6.40;98.70
26164;DHT22;13914;48.178;11.716;2023-01-15T06:31:03;6.50;98.80
26164;DHT22;13914;48.178;11.716;2023-01-15T06:33:30;6.40;98.80
26164;DHT22;13914;48.178;11.716;2023-01-15T06:35:56;6.50;98.80
26164;DHT22;13914;48.178;11.716;2023-01-15T06:38:21;6.50;98.80
26164;DHT22;13914;48.178;11.716;2023-01-15T06:40:47;6.50;98.80
26164;DHT22;13914;48.178;11.716;2023-01-15T06:43:12;6.50;98.80
26164;DHT22;13914;48.178;11.716;2023-01-15T06:45:57;6.50;98.80
26164;DHT22;13914;48.178;11.716;2023-01-15T06:48:41;6.50;98.80
26164;DHT22;13914;48.178;11.716;2023-01-15T06:51:07;6.60;98.90
26164;DHT22;13914;48.178;11.716;2023-01-15T06:53:33;6.60;98.80
26164;DHT22;13914;48.178;11.716;2023-01-15T06:56:00;6.60;98.80
26164;DHT22;13914;48.178;11.716;2023-01-15T06:58:25;6.60;98.80
26164;DHT22;13914;48.178;11.716;2023-01-15T07:00:51;6.60;98.80
26164;DHT22;13914;48.178;11.716;2023-01-15T07:03:20;6.70;98.90
26164;DHT22;13914;48.178;11.716;2023-01-15T07:05:46;6.70;98.90
26164;DHT22;13914;48.178;11.716;2023-01-15T07:08:12;6.90;99.30
26164;DHT22;13914;48.178;11.716;2023-01-15T07:10:38;7.00;99.20
26164;DHT22;13914;48.178;11.716;2023-01-15T07:13:03;7.10;99.20
26164;DHT22;13914;48.178;11.716;2023-01-15T07:15:29;7.20;99.10
26164;DHT22;13914;48.178;11.716;2023-01-15T07:17:55;7.30;99.10
26164;DHT22;13914;48.178;11.716;2023-01-15T07:20:21;7.40;99.00
26164;DHT22;13914;48.178;11.716;2023-01-15T07:22:48;7.50;99.10
26164;DHT22;13914;48.178;11.716;2023-01-15T07:25:14;7.60;99.00
26164;DHT22;13914;48.178;11.716;2023-01-15T07:27:40;7.70;99.00
26164;DHT22;13914;48.178;11.716;2023-01-15T07:30:05;7.80;98.90
26164;DHT22;13914;48.178;11.716;2023-01-15T07:32:31;7.80;98.90
26164;DHT22;13914;48.178;11.716;2023-01-15T07:34:57;7.90;98.90
26164;DHT22;13914;48.178;11.716;2023-01-15T07:37:23;8.00;98.80
26164;DHT22;13914;48.178;11.716;2023-01-15T07:39:48;8.00;98.80
26164;DHT22;13914;48.178;11.716;2023-01-15T07:42:14;8.00;98.90
26164;DHT22;13914;48.178;11.716;2023-01-15T07:44:58;8.10;98.90
26164;DHT22;13914;48.178;11.716;2023-01-15T07:47:43;8.20;98.90
26164;DHT22;13914;48.178;11.716;2023-01-15T07:50:27;8.30;98.80
26164;DHT22;13914;48.178;11.716;2023-01-15T07:52:53;8.30;98.80
26164;DHT22;13914;48.178;11.716;2023-01-15T07:55:18;8.30;98.60
26164;DHT22;13914;48.178;11.716;2023-01-15T07:57:44;8.50;98.60
26164;DHT22;13914;48.178;11.716;2023-01-15T08:00:12;8.50;98.60
26164;DHT22;13914;48.178;11.716;2023-01-15T08:02:39;8.60;98.50
26164;DHT22;13914;48.178;11.716;2023-01-15T08:05:05;8.60;98.40
26164;DHT22;13914;48.178;11.716;2023-01-15T08:07:38;8.70;98.50
26164;DHT22;13914;48.178;11.716;2023-01-15T08:10:05;8.70;98.40
26164;DHT22;13914;48.178;11.716;2023-01-15T08:12:31;8.80;98.30
26164;DHT22;13914;48.178;11.716;2023-01-15T08:15:15;8.80;98.40
26164;DHT22;13914;48.178;11.716;2023-01-15T08:17:45;8.90;98.50
26164;DHT22;13914;48.178;11.716;2023-01-15T08:22:39;8.90;98.50
26164;DHT22;13914;48.178;11.716;2023-01-15T08:25:06;8.90;98.60
26164;DHT22;13914;48.178;11.716;2023-01-15T08:27:33;8.90;98.50
26164;DHT22;13914;48.178;11.716;2023-01-15T08:30:00;9.00;98.60
26164;DHT22;13914;48.178;11.716;2023-01-15T08:32:25;9.00;98.60
26164;DHT22;13914;48.178;11.716;2023-01-15T08:34:51;9.00;98.60
26164;DHT22;13914;48.178;11.716;2023-01-15T08:37:16;9.10;98.60
26164;DHT22;13914;48.178;11.716;2023-01-15T08:39:42;9.10;98.70
26164;DHT22;13914;48.178;11.716;2023-01-15T08:42:08;9.10;98.80
26164;DHT22;13914;48.178;11.716;2023-01-15T08:44:33;9.10;98.80
26164;DHT22;13914;48.178;11.716;2023-01-15T08:46:59;9.20;98.90
26164;DHT22;13914;48.178;11.716;2023-01-15T08:49:25;9.10;98.80
26164;DHT22;13914;48.178;11.716;2023-01-15T08:51:50;9.20;98.90
26164;DHT22;13914;48.178;11.716;2023-01-15T08:54:18;9.20;98.60
26164;DHT22;13914;48.178;11.716;2023-01-15T08:56:44;9.20;98.90
26164;DHT22;13914;48.178;11.716;2023-01-15T08:59:11;9.20;98.90
26164;DHT22;13914;48.178;11.716;2023-01-15T09:01:37;9.20;98.90
26164;DHT22;13914;48.178;11.716;2023-01-15T09:04:02;9.30;98.80
26164;DHT22;13914;48.178;11.716;2023-01-15T09:06:30;9.30;98.70
26164;DHT22;13914;48.178;11.716;2023-01-15T09:08:57;9.30;98.80
26164;DHT22;13914;48.178;11.716;2023-01-15T09:11:24;9.30;98.60
26164;DHT22;13914;48.178;11.716;2023-01-15T09:13:49;9.40;98.80
26164;DHT22;13914;48.178;11.716;2023-01-15T09:16:16;9.40;98.80
26164;DHT22;13914;48.178;11.716;2023-01-15T09:18:42;9.40;98.60
26164;DHT22;13914;48.178;11.716;2023-01-15T09:21:08;9.40;98.60
26164;DHT22;13914;48.178;11.716;2023-01-15T09:23:34;9.50;98.30
26164;DHT22;13914;48.178;11.716;2023-01-15T09:26:01;9.50;98.50
26164;DHT22;13914;48.178;11.716;2023-01-15T09:28:30;9.60;98.20
26164;DHT22;13914;48.178;11.716;2023-01-15T09:30:57;9.60;98.10
26164;DHT22;13914;48.178;11.716;2023-01-15T09:40:47;9.80;97.10
26164;DHT22;13914;48.178;11.716;2023-01-15T09:46:11;10.00;97.00
26164;DHT22;13914;48.178;11.716;2023-01-15T09:51:33;10.10;97.10
26164;DHT22;13914;48.178;11.716;2023-01-15T09:54:39;10.20;95.90
26164;DHT22;13914;48.178;11.716;2023-01-15T09:57:13;10.20;96.50
26164;DHT22;13914;48.178;11.716;2023-01-15T09:59:42;10.30;95.50
26164;DHT22;13914;48.178;11.716;2023-01-15T10:02:17;10.40;95.90
26164;DHT22;13914;48.178;11.716;2023-01-15T10:04:58;10.40;96.20
26164;DHT22;13914;48.178;11.716;2023-01-15T10:10:38;10.60;94.80
26164;DHT22;13914;48.178;11.716;2023-01-15T10:16:18;10.70;95.80
26164;DHT22;13914;48.178;11.716;2023-01-15T10:18:45;10.60;96.10
26164;DHT22;13914;48.178;11.716;2023-01-15T10:26:37;10.50;96.80
26164;DHT22;13914;48.178;11.716;2023-01-15T10:29:08;10.40;96.40
26164;DHT22;13914;48.178;11.716;2023-01-15T10:37:57;10.00;96.80
26164;DHT22;13914;48.178;11.716;2023-01-15T10:40:45;9.90;96.60
26164;DHT22;13914;48.178;11.716;2023-01-15T10:46:25;9.80;96.40
26164;DHT22;13914;48.178;11.716;2023-01-15T10:49:13;9.70;96.70
26164;DHT22;13914;48.178;11.716;2023-01-15T10:54:28;9.50;96.90
26164;DHT22;13914;48.178;11.716;2023-01-15T11:02:22;9.50;96.90
26164;DHT22;13914;48.178;11.716;2023-01-15T11:04:51;9.30;96.90
26164;DHT22;13914;48.178;11.716;2023-01-15T11:07:17;9.30;96.70
26164;DHT22;13914;48.178;11.716;2023-01-15T11:09:45;9.30;96.60
26164;DHT22;13914;48.178;11.716;2023-01-15T11:12:16;9.20;96.50
26164;DHT22;13914;48.178;11.716;2023-01-15T11:14:45;9.20;96.80
26164;DHT22;13914;48.178;11.716;2023-01-15T11:17:36;9.10;96.90
26164;DHT22;13914;48.178;11.716;2023-01-15T11:20:28;9.10;96.70
26164;DHT22;13914;48.178;11.716;2023-01-15T11:22:55;9.00;96.50
26164;DHT22;13914;48.178;11.716;2023-01-15T11:25:29;8.90;96.40
26164;DHT22;13914;48.178;11.716;2023-01-15T11:27:56;8.70;96.10
26164;DHT22;13914;48.178;11.716;2023-01-15T11:30:24;8.60;96.90
26164;DHT22;13914;48.178;11.716;2023-01-15T11:32:55;8.60;96.90
26164;DHT22;13914;48.178;11.716;2023-01-15T11:35:23;8.60;97.00
26164;DHT22;13914;48.178;11.716;2023-01-15T11:37:49;8.60;96.80
26164;DHT22;13914;48.178;11.716;2023-01-15T11:40:18;8.50;96.70
26164;DHT22;13914;48.178;11.716;2023-01-15T11:42:48;8.50;96.60
26164;DHT22;13914;48.178;11.716;2023-01-15T11:45:32;8.40;96.80
26164;DHT22;13914;48.178;11.716;2023-01-15T11:48:18;8.30;96.80
26164;DHT22;13914;48.178;11.716;2023-01-15T11:51:11;8.30;96.60
26164;DHT22;13914;48.178;11.716;2023-01-15T11:53:40;8.20;96.90
26164;DHT22;13914;48.178;11.716;2023-01-15T11:56:13;8.10;96.90
26164;DHT22;13914;48.178;11.716;2023-01-15T11:58:46;8.10;97.10
26164;DHT22;13914;48.178;11.716;2023-01-15T12:01:19;8.10;97.00
26164;DHT22;13914;48.178;11.716;2023-01-15T12:03:48;8.00;97.00
26164;DHT22;13914;48.178;11.716;2023-01-15T12:06:13;8.00;97.20
26164;DHT22;13914;48.178;11.716;2023-01-15T12:08:45;7.90;97.10
26164;DHT22;13914;48.178;11.716;2023-01-15T12:13:51;7.80;97.50
26164;DHT22;13914;48.178;11.716;2023-01-15T12:19:52;7.80;97.50
26164;DHT22;13914;48.178;11.716;2023-01-15T12:28:36;7.60;97.70
26164;DHT22;13914;48.178;11.716;2023-01-15T12:35:50;7.70;97.50
26164;DHT22;13914;48.178;11.716;2023-01-15T12:38:34;7.60;98.00
26164;DHT22;13914;48.178;11.716;2023-01-15T12:41:09;7.60;97.60
26164;DHT22;13914;48.178;11.716;2023-01-15T12:43:37;7.50;97.60
26164;DHT22;13914;48.178;11.716;2023-01-15T12:46:23;7.50;97.90
26164;DHT22;13914;48.178;11.716;2023-01-15T12:51:21;7.30;97.80
26164;DHT22;13914;48.178;11.716;2023-01-15T12:53:56;7.30;97.90
26164;DHT22;13914;48.178;11.716;2023-01-15T12:56:32;7.30;98.00
26164;DHT22;13914;48.178;11.716;2023-01-15T13:04:51;7.20;97.90
26164;DHT22;13914;48.178;11.716;2023-01-15T13:10:19;7.20;98.20
26164;DHT22;13914;48.178;11.716;2023-01-15T13:12:47;7.20;98.60
26164;DHT22;13914;48.178;11.716;2023-01-15T13:15:14;7.20;98.20
26164;DHT22;13914;48.178;11.716;2023-01-15T13:17:54;7.20;98.20
26164;DHT22;13914;48.178;11.716;2023-01-15T13:20:38;7.20;98.20
26164;DHT22;13914;48.178;11.716;2023-01-15T13:23:08;7.10;98.30
26164;DHT22;13914;48.178;11.716;2023-01-15T13:34:42;7.10;98.30
26164;DHT22;13914;48.178;11.716;2023-01-15T13:37:19;7.10;98.30
26164;DHT22;13914;48.178;11.716;2023-01-15T13:39:48;7.10;98.40
26164;DHT22;13914;48.178;11.716;2023-01-15T13:42:16;7.10;98.30
26164;DHT22;13914;48.178;11.716;2023-01-15T13:45:01;7.20;98.50
26164;DHT22;13914;48.178;11.716;2023-01-15T13:47:27;7.00;98.30
26164;DHT22;13914;48.178;11.716;2023-01-15T13:49:56;7.10;98.50
26164;DHT22;13914;48.178;11.716;2023-01-15T13:52:31;6.90;98.20
26164;DHT22;13914;48.178;11.716;2023-01-15T13:55:19;6.90;98.50
26164;DHT22;13914;48.178;11.716;2023-01-15T13:58:00;6.90;98.40
26164;DHT22;13914;48.178;11.716;2023-01-15T14:00:33;6.70;98.50
26164;DHT22;13914;48.178;11.716;2023-01-15T14:03:22;6.70;98.40
26164;DHT22;13914;48.178;11.716;2023-01-15T14:05:53;6.70;98.50
26164;DHT22;13914;48.178;11.716;2023-01-15T14:08:23;6.60;98.40
26164;DHT22;13914;48.178;11.716;2023-01-15T14:10:50;6.50;98.40
26164;DHT22;13914;48.178;11.716;2023-01-15T14:21:24;6.50;98.20
26164;DHT22;13914;48.178;11.716;2023-01-15T14:36:25;6.40;98.40
26164;DHT22;13914;48.178;11.716;2023-01-15T14:38:54;6.40;98.10
26164;DHT22;13914;48.178;11.716;2023-01-15T14:41:29;6.50;98.20
26164;DHT22;13914;48.178;11.716;2023-01-15T14:43:57;6.40;97.90
26164;DHT22;13914;48.178;11.716;2023-01-15T14:46:26;6.40;98.00
26164;DHT22;13914;48.178;11.716;2023-01-15T14:48:54;6.30;98.00
26164;DHT22;13914;48.178;11.716;2023-01-15T14:51:27;6.30;98.10
26164;DHT22;13914;48.178;11.716;2023-01-15T14:53:56;6.30;98.00
26164;DHT22;13914;48.178;11.716;2023-01-15T14:56:42;6.30;98.20
26164;DHT22;13914;48.178;11.716;2023-01-15T14:59:19;6.30;98.10
26164;DHT22;13914;48.178;11.716;2023-01-15T15:01:50;6.20;98.30
26164;DHT22;13914;48.178;11.716;2023-01-15T15:04:33;6.20;98.30
26164;DHT22;13914;48.178;11.716;2023-01-15T15:09:43;6.20;98.30
26164;DHT22;13914;48.178;11.716;2023-01-15T15:15:09;6.10;98.30
26164;DHT22;13914;48.178;11.716;2023-01-15T15:22:54;6.00;98.50
26164;DHT22;13914;48.178;11.716;2023-01-15T15:25:23;6.00;98.50
26164;DHT22;13914;48.178;11.716;2023-01-15T15:28:00;6.00;98.30
26164;DHT22;13914;48.178;11.716;2023-01-15T15:30:27;6.00;98.40
26164;DHT22;13914;48.178;11.716;2023-01-15T15:32:56;5.90;98.50
26164;DHT22;13914;48.178;11.716;2023-01-15T15:35:26;5.90;98.60
26164;DHT22;13914;48.178;11.716;2023-01-15T15:37:52;5.80;98.60
26164;DHT22;13914;48.178;11.716;2023-01-15T15:40:19;5.80;98.60
26164;DHT22;13914;48.178;11.716;2023-01-15T15:42:53;5.80;98.50
26164;DHT22;13914;48.178;11.716;2023-01-15T15:45:49;5.80;98.60
26164;DHT22;13914;48.178;11.716;2023-01-15T15:48:38;5.80;98.60
26164;DHT22;13914;48.178;11.716;2023-01-15T15:57:06;5.60;98.70
26164;DHT22;13914;48.178;11.716;2023-01-15T15:59:35;5.60;98.80
26164;DHT22;13914;48.178;11.716;2023-01-15T16:02:18;5.60;98.70
26164;DHT22;13914;48.178;11.716;2023-01-15T16:04:46;5.60;98.80
26164;DHT22;13914;48.178;11.716;2023-01-15T16:07:20;5.60;98.80
26164;DHT22;13914;48.178;11.716;2023-01-15T16:09:48;5.50;98.70
26164;DHT22;13914;48.178;11.716;2023-01-15T16:12:14;5.60;98.70
26164;DHT22;13914;48.178;11.716;2023-01-15T16:14:41;5.50;98.80
26164;DHT22;13914;48.178;11.716;2023-01-15T16:17:09;5.50;98.80
26164;DHT22;13914;48.178;11.716;2023-01-15T16:19:36;5.50;98.90
26164;DHT22;13914;48.178;11.716;2023-01-15T16:22:03;5.50;98.90
26164;DHT22;13914;48.178;11.716;2023-01-15T16:24:33;5.40;98.90
26164;DHT22;13914;48.178;11.716;2023-01-15T16:27:12;5.40;98.90
26164;DHT22;13914;48.178;11.716;2023-01-15T16:29:44;5.40;98.90
26164;DHT22;13914;48.178;11.716;2023-01-15T16:32:13;5.50;98.90
26164;DHT22;13914;48.178;11.716;2023-01-15T16:34:44;5.30;98.80
26164;DHT22;13914;48.178;11.716;2023-01-15T16:37:15;5.30;98.90
26164;DHT22;13914;48.178;11.716;2023-01-15T16:39:48;5.20;98.80
26164;DHT22;13914;48.178;11.716;2023-01-15T16:42:25;5.20;98.90
26164;DHT22;13914;48.178;11.716;2023-01-15T16:44:55;5.20;99.00
26164;DHT22;13914;48.178;11.716;2023-01-15T16:47:27;5.20;99.00
26164;DHT22;13914;48.178;11.716;2023-01-15T16:50:37;5.20;99.00
26164;DHT22;13914;48.178;11.716;2023-01-15T16:52:50;5.20;99.10
26164;DHT22;13914;48.178;11.716;2023-01-15T16:55:33;5.10;98.90
26164;DHT22;13914;48.178;11.716;2023-01-15T17:00:42;5.10;98.80
26164;DHT22;13914;48.178;11.716;2023-01-15T17:03:11;5.10;98.90
26164;DHT22;13914;48.178;11.716;2023-01-15T17:05:39;5.00;98.70
26164;DHT22;13914;48.178;11.716;2023-01-15T17:08:04;5.00;98.70
26164;DHT22;13914;48.178;11.716;2023-01-15T17:10:39;5.00;99.10
26164;DHT22;13914;48.178;11.716;2023-01-15T17:13:19;5.00;98.80
26164;DHT22;13914;48.178;11.716;2023-01-15T17:15:45;5.00;98.80
26164;DHT22;13914;48.178;11.716;2023-01-15T17:18:18;4.90;98.60
26164;DHT22;13914;48.178;11.716;2023-01-15T17:20:45;4.90;98.60
26164;DHT22;13914;48.178;11.716;2023-01-15T17:23:11;5.00;98.70
26164;DHT22;13914;48.178;11.716;2023-01-15T17:25:37;4.90;98.70
26164;DHT22;13914;48.178;11.716;2023-01-15T17:28:03;4.90;98.60
26164;DHT22;13914;48.178;11.716;2023-01-15T17:30:29;4.80;98.50
26164;DHT22;13914;48.178;11.716;2023-01-15T17:32:56;4.80;98.80
26164;DHT22;13914;48.178;11.716;2023-01-15T17:35:24;4.80;98.50
26164;DHT22;13914;48.178;11.716;2023-01-15T17:37:52;4.80;98.30
26164;DHT22;13914;48.178;11.716;2023-01-15T17:40:18;4.80;98.50
26164;DHT22;13914;48.178;11.716;2023-01-15T17:42:44;4.80;98.30
26164;DHT22;13914;48.178;11.716;2023-01-15T17:45:43;4.80;98.20
26164;DHT22;13914;48.178;11.716;2023-01-15T17:48:02;4.80;98.10
26164;DHT22;13914;48.178;11.716;2023-01-15T17:50:28;4.80;98.30
26164;DHT22;13914;48.178;11.716;2023-01-15T17:52:54;4.70;98.10
26164;DHT22;13914;48.178;11.716;2023-01-15T17:55:20;4.70;98.20
26164;DHT22;13914;48.178;11.716;2023-01-15T17:58:07;4.70;98.00
26164;DHT22;13914;48.178;11.716;2023-01-15T18:00:53;4.60;98.10
26164;DHT22;13914;48.178;11.716;2023-01-15T18:03:38;4.70;97.80
26164;DHT22;13914;48.178;11.716;2023-01-15T18:06:27;4.60;98.10
26164;DHT22;13914;48.178;11.716;2023-01-15T18:08:53;4.70;98.00
26164;DHT22;13914;48.178;11.716;2023-01-15T18:11:20;4.60;98.00
26164;DHT22;13914;48.178;11.716;2023-01-15T18:13:46;4.60;98.20
26164;DHT22;13914;48.178;11.716;2023-01-15T18:16:12;4.60;98.10
26164;DHT22;13914;48.178;11.716;2023-01-15T18:18:38;4.60;98.00
26164;DHT22;13914;48.178;11.716;2023-01-15T18:21:04;4.60;98.30